Time;durP1;ratioP1;P1;durP2;ratioP2;P2;SDS_P1;SDS_P2;PMS_P1;PMS_P2;Temp;Humidity;BMP_temperature;BMP_pressure;BME280_temperature;BME280_humidity;BME280_pressure;Samples;Min_cycle;Max_cycle;Signal;HPM_P1;HPM_P2
2024/01/19 00:02:26;0.00;0.00;0.62;0.00;0.00;0.62;2.40;1.80;;;19.00;21.00;;;;;;2252436;61;20463;-57
2024/01/19 00:05:11;0.00;0.00;0.62;0.00;0.00;0.62;3.00;1.70;;;19.00;21.00;;;;;;2252695;61;20386;-66
2024/01/19 00:07:55;0.00;0.00;0.62;0.00;0.00;0.62;2.83;1.50;;;19.00;21.00;;;;;;2252548;61;20987;-52
2024/01/19 00:10:40;0.00;0.00;0.62;0.00;0.00;0.62;2.60;1.67;;;19.00;21.00;;;;;;2252645;61;20417;-58
2024/01/19 00:13:26;0.00;0.00;0.62;0.00;0.00;0.62;4.27;1.80;;;19.00;21.00;;;;;;2251759;61;20537;-58
2024/01/19 00:16:11;0.00;0.00;0.62;0.00;0.00;0.62;2.40;1.67;;;19.00;20.90;;;;;;2252440;61;20371;-58
2024/01/19 00:18:57;0.00;0.00;0.62;0.00;0.00;0.62;2.60;1.60;;;19.00;20.90;;;;;;2252170;61;22457;-56
2024/01/19 00:21:43;0.00;0.00;0.62;0.00;0.00;0.62;2.13;1.50;;;19.00;20.90;;;;;;2251688;61;20906;-54
2024/01/19 00:24:28;0.00;0.00;0.62;0.00;0.00;0.62;2.50;1.80;;;19.00;20.90;;;;;;2252668;61;20445;-58
2024/01/19 00:27:13;0.00;0.00;0.62;0.00;0.00;0.62;2.40;1.60;;;19.00;20.90;;;;;;2252670;61;20443;-53
2024/01/19 00:29:58;0.00;0.00;0.62;0.00;0.00;0.62;2.20;1.23;;;19.00;20.90;;;;;;2252589;61;20517;-55
2024/01/19 00:32:43;0.00;0.00;0.62;0.00;0.00;0.62;2.50;1.93;;;19.00;20.90;;;;;;2252119;61;20391;-57
2024/01/19 00:35:28;0.00;0.00;0.62;0.00;0.00;0.62;3.50;1.53;;;18.90;20.90;;;;;;2252287;61;20862;-59
2024/01/19 00:38:12;0.00;0.00;0.62;0.00;0.00;0.62;1.97;1.20;;;19.00;21.00;;;;;;2252563;61;20463;-58
2024/01/19 00:40:57;0.00;0.00;0.62;0.00;0.00;0.62;3.00;1.93;;;19.00;21.00;;;;;;2252705;61;20815;-57
2024/01/19 00:43:42;0.00;0.00;0.62;0.00;0.00;0.62;2.47;1.60;;;18.90;20.90;;;;;;2252260;61;20375;-54
2024/01/19 00:46:28;0.00;0.00;0.62;0.00;0.00;0.62;2.20;1.20;;;18.90;20.90;;;;;;2252657;61;20382;-57
2024/01/19 00:49:13;0.00;0.00;0.62;0.00;0.00;0.62;4.03;1.60;;;18.90;20.90;;;;;;2252735;61;21005;-51
2024/01/19 00:51:57;0.00;0.00;0.62;0.00;0.00;0.62;1.90;1.23;;;18.90;20.90;;;;;;2251576;61;20394;-55
2024/01/19 00:54:42;0.00;0.00;0.62;0.00;0.00;0.62;2.20;1.63;;;18.90;20.90;;;;;;2252458;61;20438;-55
2024/01/19 00:57:26;0.00;0.00;0.62;0.00;0.00;0.62;1.93;1.43;;;18.90;20.90;;;;;;2252275;61;20459;-56
2024/01/19 01:00:11;0.00;0.00;0.62;0.00;0.00;0.62;2.27;1.40;;;18.90;20.90;;;;;;2252662;61;20421;-58
2024/01/19 01:02:57;0.00;0.00;0.62;0.00;0.00;0.62;2.30;1.70;;;18.90;20.90;;;;;;2252277;61;20495;-58
2024/01/19 01:05:42;0.00;0.00;0.62;0.00;0.00;0.62;2.80;1.60;;;18.90;20.90;;;;;;2252146;61;21064;-58
2024/01/19 01:08:27;0.00;0.00;0.62;0.00;0.00;0.62;2.10;1.37;;;18.90;20.90;;;;;;2252442;61;20375;-55
2024/01/19 01:11:12;0.00;0.00;0.62;0.00;0.00;0.62;1.80;1.20;;;18.90;20.90;;;;;;2252640;61;20458;-55
2024/01/19 01:13:57;0.00;0.00;0.62;0.00;0.00;0.62;2.10;1.37;;;18.90;20.80;;;;;;2251860;61;21058;-57
2024/01/19 01:16:42;0.00;0.00;0.62;0.00;0.00;0.62;2.00;1.20;;;18.90;20.90;;;;;;2252345;61;20418;-52
2024/01/19 01:19:28;0.00;0.00;0.62;0.00;0.00;0.62;2.47;1.53;;;18.90;20.90;;;;;;2252454;61;20374;-58
2024/01/19 01:22:13;0.00;0.00;0.62;0.00;0.00;0.62;2.40;1.57;;;18.90;20.90;;;;;;2252070;61;20375;-54
2024/01/19 01:24:57;0.00;0.00;0.62;0.00;0.00;0.62;2.50;1.37;;;18.90;21.40;;;;;;2252489;61;20442;-56
2024/01/19 01:27:52;0.00;0.00;0.62;0.00;0.00;0.62;2.30;1.10;;;18.90;20.90;;;;;;1676831;74;20985;-54
2024/01/19 01:30:37;0.00;0.00;0.62;0.00;0.00;0.62;1.90;1.20;;;18.80;20.80;;;;;;2267879;61;20343;-54
2024/01/19 01:33:22;0.00;0.00;0.62;0.00;0.00;0.62;1.93;1.30;;;18.80;20.80;;;;;;2267398;61;20410;-60
2024/01/19 01:36:07;0.00;0.00;0.62;0.00;0.00;0.62;1.83;1.17;;;18.80;20.80;;;;;;2267684;61;20893;-57
2024/01/19 01:38:52;0.00;0.00;0.62;0.00;0.00;0.62;1.90;1.30;;;18.80;20.80;;;;;;2267807;61;20837;-57
2024/01/19 01:41:37;0.00;0.00;0.62;0.00;0.00;0.62;2.07;1.27;;;18.80;20.80;;;;;;2267369;61;20768;-54
2024/01/19 01:44:23;0.00;0.00;0.62;0.00;0.00;0.62;1.93;1.17;;;18.80;20.80;;;;;;2267791;61;20436;-58
2024/01/19 01:47:07;0.00;0.00;0.62;0.00;0.00;0.62;1.80;1.13;;;18.80;20.80;;;;;;2267738;61;20908;-56
2024/01/19 01:49:52;0.00;0.00;0.62;0.00;0.00;0.62;3.03;1.13;;;18.80;20.80;;;;;;2267538;61;20363;-56
2024/01/19 01:52:37;0.00;0.00;0.62;0.00;0.00;0.62;2.07;1.10;;;18.80;20.80;;;;;;2267001;61;20903;-59
2024/01/19 01:55:22;0.00;0.00;0.62;0.00;0.00;0.62;2.80;1.30;;;18.80;20.80;;;;;;2267565;61;20421;-54
2024/01/19 01:58:09;0.00;0.00;0.62;0.00;0.00;0.62;2.17;1.23;;;18.80;20.80;;;;;;2267523;61;20926;-55
2024/01/19 02:00:55;0.00;0.00;0.62;0.00;0.00;0.62;1.53;0.93;;;18.80;20.80;;;;;;2267556;61;20363;-55
2024/01/19 02:03:41;0.00;0.00;0.62;0.00;0.00;0.62;1.80;1.10;;;18.80;20.80;;;;;;2267432;61;20409;-56
2024/01/19 02:06:27;0.00;0.00;0.62;0.00;0.00;0.62;2.30;0.90;;;18.70;20.70;;;;;;2267561;61;20478;-54
2024/01/19 02:09:13;0.00;0.00;0.62;0.00;0.00;0.62;1.87;1.20;;;18.80;20.80;;;;;;2267899;61;20422;-54
2024/01/19 02:11:58;0.00;0.00;0.62;0.00;0.00;0.62;1.60;0.90;;;18.80;20.80;;;;;;2265212;61;20368;-54
2024/01/19 02:14:43;0.00;0.00;0.62;0.00;0.00;0.62;2.13;0.90;;;18.70;20.70;;;;;;2260823;61;20454;-55
2024/01/19 02:17:29;0.00;0.00;0.62;0.00;0.00;0.62;2.10;1.20;;;18.70;20.70;;;;;;2267348;61;20387;-56
2024/01/19 02:20:14;0.00;0.00;0.62;0.00;0.00;0.62;2.23;0.90;;;18.70;20.70;;;;;;2267351;61;20831;-55
2024/01/19 02:23:02;0.00;0.00;0.62;0.00;0.00;0.62;1.90;1.20;;;18.70;20.70;;;;;;2267133;61;20907;-51
2024/01/19 02:25:48;0.00;0.00;0.62;0.00;0.00;0.62;2.00;1.13;;;18.70;20.70;;;;;;2265576;61;20537;-51
2024/01/19 02:28:33;0.00;0.00;0.62;0.00;0.00;0.62;2.00;1.00;;;18.70;20.70;;;;;;2267452;61;20776;-57
2024/01/19 02:31:18;0.00;0.00;0.62;0.00;0.00;0.62;2.00;1.20;;;18.70;20.70;;;;;;2267519;61;20422;-56
2024/01/19 02:34:02;0.00;0.00;0.62;0.00;0.00;0.62;2.10;1.33;;;18.70;20.70;;;;;;2265009;61;21009;-58
2024/01/19 02:36:47;0.00;0.00;0.62;0.00;0.00;0.62;1.60;1.00;;;18.70;20.70;;;;;;2263529;61;20384;-55
2024/01/19 02:39:31;0.00;0.00;0.62;0.00;0.00;0.62;1.77;1.17;;;18.70;20.70;;;;;;2260636;61;20369;-56
2024/01/19 02:42:17;0.00;0.00;0.62;0.00;0.00;0.62;2.17;0.93;;;18.70;20.70;;;;;;2260435;61;20416;-62
2024/01/19 02:45:02;0.00;0.00;0.62;0.00;0.00;0.62;1.77;1.10;;;18.70;20.70;;;;;;2260545;61;20428;-57
2024/01/19 02:47:46;0.00;0.00;0.62;0.00;0.00;0.62;1.90;1.00;;;18.70;20.70;;;;;;2264748;61;20391;-56
2024/01/19 02:50:31;0.00;0.00;0.62;0.00;0.00;0.62;1.90;1.10;;;18.70;20.80;;;;;;2264630;61;20372;-60
2024/01/19 02:53:15;0.00;0.00;0.62;0.00;0.00;0.62;1.77;1.03;;;18.70;20.70;;;;;;2264395;61;20360;-54
2024/01/19 02:56:00;0.00;0.00;0.62;0.00;0.00;0.62;1.57;1.07;;;18.70;20.80;;;;;;2264412;61;20356;-54
2024/01/19 02:58:46;0.00;0.00;0.62;0.00;0.00;0.62;1.70;1.00;;;18.70;20.70;;;;;;2264844;61;20414;-58
2024/01/19 03:01:30;0.00;0.00;0.62;0.00;0.00;0.62;2.63;1.00;;;18.70;20.80;;;;;;2264671;61;20899;-57
2024/01/19 03:04:15;0.00;0.00;0.62;0.00;0.00;0.62;2.07;1.00;;;18.60;20.70;;;;;;2264684;61;20391;-53
2024/01/19 03:06:59;0.00;0.00;0.62;0.00;0.00;0.62;2.40;1.10;;;18.70;20.80;;;;;;2264690;61;20932;-53
2024/01/19 03:09:44;0.00;0.00;0.62;0.00;0.00;0.62;1.70;1.10;;;18.70;20.80;;;;;;2265040;61;20399;-58
2024/01/19 03:12:28;0.00;0.00;0.62;0.00;0.00;0.62;1.60;0.90;;;18.60;20.70;;;;;;2264073;61;20360;-53
2024/01/19 03:15:15;0.00;0.00;0.62;0.00;0.00;0.62;1.83;1.03;;;18.60;20.70;;;;;;2334420;40;20412;-53
2024/01/19 03:17:59;0.00;0.00;0.62;0.00;0.00;0.62;2.87;1.20;;;18.60;20.70;;;;;;2260556;61;20361;-54
2024/01/19 03:20:46;0.00;0.00;0.62;0.00;0.00;0.62;1.30;0.80;;;18.60;20.70;;;;;;2260799;61;20369;-60
2024/01/19 03:23:30;0.00;0.00;0.62;0.00;0.00;0.62;1.87;0.97;;;18.60;20.70;;;;;;2260385;61;20384;-53
2024/01/19 03:26:15;0.00;0.00;0.62;0.00;0.00;0.62;2.10;1.10;;;18.60;20.70;;;;;;2260556;61;20786;-54
2024/01/19 03:29:00;0.00;0.00;0.62;0.00;0.00;0.62;1.70;1.10;;;18.60;20.70;;;;;;2260747;61;20885;-53
2024/01/19 03:31:47;0.00;0.00;0.62;0.00;0.00;0.62;1.80;1.00;;;18.60;20.70;;;;;;2260431;61;20365;-56
2024/01/19 03:34:32;0.00;0.00;0.62;0.00;0.00;0.62;1.40;0.90;;;18.60;20.70;;;;;;2260453;61;20389;-55
2024/01/19 03:37:16;0.00;0.00;0.62;0.00;0.00;0.62;1.70;0.90;;;18.60;20.70;;;;;;2260806;61;20781;-55
2024/01/19 03:40:04;0.00;0.00;0.62;0.00;0.00;0.62;1.50;0.70;;;18.60;20.70;;;;;;2260749;61;20963;-53
2024/01/19 03:42:48;0.00;0.00;0.62;0.00;0.00;0.62;1.30;0.70;;;18.60;20.70;;;;;;2262669;61;20885;-52
2024/01/19 03:45:33;0.00;0.00;0.62;0.00;0.00;0.62;1.67;1.00;;;18.60;20.70;;;;;;2260684;61;20673;-53
2024/01/19 03:48:19;0.00;0.00;0.62;0.00;0.00;0.62;1.70;1.00;;;18.60;20.70;;;;;;2260374;61;20392;-55
2024/01/19 03:51:07;0.00;0.00;0.62;0.00;0.00;0.62;1.40;0.90;;;18.60;20.70;;;;;;2260589;61;20373;-53
2024/01/19 03:53:51;0.00;0.00;0.62;0.00;0.00;0.62;1.60;0.90;;;18.60;20.70;;;;;;2260392;61;20473;-52
2024/01/19 03:56:38;0.00;0.00;0.62;0.00;0.00;0.62;2.13;0.90;;;18.60;20.70;;;;;;2260299;61;20415;-53
2024/01/19 03:59:22;0.00;0.00;0.62;0.00;0.00;0.62;1.80;0.90;;;18.60;20.70;;;;;;2260538;61;20427;-56
2024/01/19 04:02:07;0.00;0.00;0.62;0.00;0.00;0.62;1.43;0.97;;;18.50;20.60;;;;;;2260148;61;20893;-55
2024/01/19 04:04:53;0.00;0.00;0.62;0.00;0.00;0.62;1.30;0.80;;;18.60;20.70;;;;;;2260640;61;20477;-57
2024/01/19 04:07:37;0.00;0.00;0.62;0.00;0.00;0.62;1.70;1.00;;;18.50;20.60;;;;;;2260446;61;20408;-57
2024/01/19 04:10:22;0.00;0.00;0.62;0.00;0.00;0.62;2.40;0.90;;;18.50;20.60;;;;;;2260247;61;20412;-56
2024/01/19 04:13:07;0.00;0.00;0.62;0.00;0.00;0.62;1.60;0.83;;;18.50;20.60;;;;;;2260094;61;20361;-54
2024/01/19 04:15:51;0.00;0.00;0.62;0.00;0.00;0.62;1.77;0.87;;;18.50;20.60;;;;;;2260192;61;20375;-56
2024/01/19 04:18:36;0.00;0.00;0.62;0.00;0.00;0.62;1.70;0.70;;;18.50;20.60;;;;;;2260422;61;20360;-56
2024/01/19 04:21:22;0.00;0.00;0.62;0.00;0.00;0.62;2.33;1.10;;;18.50;20.60;;;;;;2260516;61;20361;-55
2024/01/19 04:24:06;0.00;0.00;0.62;0.00;0.00;0.62;1.90;1.00;;;18.50;20.60;;;;;;2260593;61;20420;-57
2024/01/19 04:26:51;0.00;0.00;0.62;0.00;0.00;0.62;1.40;0.80;;;18.50;20.60;;;;;;2260286;61;20576;-55
2024/01/19 04:29:35;0.00;0.00;0.62;0.00;0.00;0.62;1.80;0.70;;;18.50;20.60;;;;;;2260429;61;20369;-56
2024/01/19 04:32:20;0.00;0.00;0.62;0.00;0.00;0.62;2.17;0.90;;;18.50;20.60;;;;;;2259986;61;20368;-55
2024/01/19 04:35:05;0.00;0.00;0.62;0.00;0.00;0.62;1.93;0.90;;;18.50;20.60;;;;;;2260411;61;20431;-54
2024/01/19 04:37:50;0.00;0.00;0.62;0.00;0.00;0.62;1.50;0.80;;;18.50;20.70;;;;;;2260547;61;20408;-55
2024/01/19 04:40:35;0.00;0.00;0.62;0.00;0.00;0.62;1.67;0.80;;;18.50;20.70;;;;;;2260236;61;20799;-55
2024/01/19 04:43:20;0.00;0.00;0.62;0.00;0.00;0.62;1.33;0.70;;;18.50;20.70;;;;;;2259733;61;20392;-55
2024/01/19 04:46:04;0.00;0.00;0.62;0.00;0.00;0.62;1.63;0.93;;;18.50;20.70;;;;;;2260398;61;20466;-52
2024/01/19 04:48:49;0.00;0.00;0.62;0.00;0.00;0.62;1.43;0.83;;;18.50;20.70;;;;;;2260220;61;20365;-57
2024/01/19 04:51:33;0.00;0.00;0.62;0.00;0.00;0.62;1.80;0.93;;;18.50;20.70;;;;;;2259964;61;20947;-55
2024/01/19 04:54:19;0.00;0.00;0.62;0.00;0.00;0.62;2.27;1.10;;;18.50;20.70;;;;;;2260321;61;20767;-54
2024/01/19 04:57:04;0.00;0.00;0.62;0.00;0.00;0.62;1.60;1.00;;;18.50;20.70;;;;;;2260493;61;20380;-59
2024/01/19 04:59:49;0.00;0.00;0.62;0.00;0.00;0.62;2.03;0.90;;;18.50;20.70;;;;;;2260392;61;20361;-57
2024/01/19 05:02:33;0.00;0.00;0.62;0.00;0.00;0.62;2.50;1.17;;;18.40;20.60;;;;;;2260007;61;20794;-56
2024/01/19 05:05:18;0.00;0.00;0.62;0.00;0.00;0.62;1.53;0.77;;;18.50;20.70;;;;;;2260337;61;20384;-54
2024/01/19 05:08:03;0.00;0.00;0.62;0.00;0.00;0.62;1.33;0.80;;;18.50;20.70;;;;;;2260375;61;20481;-53
2024/01/19 05:10:49;0.00;0.00;0.62;0.00;0.00;0.62;1.80;0.93;;;18.40;20.60;;;;;;2259781;61;20389;-56
2024/01/19 05:13:34;0.00;0.00;0.62;0.00;0.00;0.62;1.80;1.00;;;18.40;20.60;;;;;;2260214;61;20385;-53
2024/01/19 05:16:18;0.00;0.00;0.62;0.00;0.00;0.62;1.50;0.90;;;18.50;20.70;;;;;;2260131;61;20380;-55
2024/01/19 05:19:03;0.00;0.00;0.62;0.00;0.00;0.62;1.50;0.83;;;18.40;20.60;;;;;;2260375;61;20400;-57
2024/01/19 05:21:48;0.00;0.00;0.62;0.00;0.00;0.62;1.80;0.90;;;18.40;20.60;;;;;;2260003;61;20369;-55
2024/01/19 05:24:32;0.00;0.00;0.62;0.00;0.00;0.62;1.30;0.80;;;18.40;20.60;;;;;;2260288;61;20482;-55
2024/01/19 05:27:18;0.00;0.00;0.62;0.00;0.00;0.62;1.80;0.87;;;18.40;20.60;;;;;;2260387;61;20524;-56
2024/01/19 05:30:05;0.00;0.00;0.62;0.00;0.00;0.62;1.60;0.90;;;18.40;20.70;;;;;;2260097;61;20416;-53
2024/01/19 05:32:49;0.00;0.00;0.62;0.00;0.00;0.62;1.43;0.87;;;18.40;20.60;;;;;;2259910;61;20372;-55
2024/01/19 05:35:34;0.00;0.00;0.62;0.00;0.00;0.62;1.90;0.80;;;18.40;20.70;;;;;;2260221;61;20364;-54
2024/01/19 05:38:18;0.00;0.00;0.62;0.00;0.00;0.62;1.50;0.90;;;18.40;21.20;;;;;;2260138;61;20361;-52
2024/01/19 05:41:03;0.00;0.00;0.62;0.00;0.00;0.62;1.90;1.07;;;18.40;20.70;;;;;;2260164;61;20415;-57
2024/01/19 05:43:49;0.00;0.00;0.62;0.00;0.00;0.62;1.60;0.90;;;18.40;20.70;;;;;;2259415;61;20388;-54
2024/01/19 05:46:34;0.00;0.00;0.62;0.00;0.00;0.62;1.80;0.77;;;18.40;20.70;;;;;;2259967;61;20428;-51
2024/01/19 05:49:18;0.00;0.00;0.62;0.00;0.00;0.62;1.70;1.00;;;18.40;20.70;;;;;;2260312;61;20392;-54
2024/01/19 05:52:04;0.00;0.00;0.62;0.00;0.00;0.62;1.50;0.83;;;18.40;21.20;;;;;;2259926;61;20507;-55
2024/01/19 05:54:48;0.00;0.00;0.62;0.00;0.00;0.62;1.30;0.70;;;18.40;20.70;;;;;;2262405;61;20389;-56
2024/01/19 05:57:33;0.00;0.00;0.62;0.00;0.00;0.62;2.10;1.00;;;18.40;20.70;;;;;;2260317;61;20358;-53
2024/01/19 06:00:19;0.00;0.00;0.62;0.00;0.00;0.62;1.63;1.03;;;18.40;20.70;;;;;;2260238;61;20420;-57
2024/01/19 06:03:04;0.00;0.00;0.62;0.00;0.00;0.62;2.63;0.90;;;18.40;20.70;;;;;;2259662;61;20368;-56
2024/01/19 06:05:49;0.00;0.00;0.62;0.00;0.00;0.62;1.57;1.00;;;18.40;20.70;;;;;;2260313;61;20465;-58
2024/01/19 06:08:33;0.00;0.00;0.62;0.00;0.00;0.62;1.90;0.90;;;18.40;20.70;;;;;;2260129;61;20365;-57
2024/01/19 06:11:18;0.00;0.00;0.62;0.00;0.00;0.62;1.50;0.80;;;18.40;20.70;;;;;;2260364;61;20384;-54
2024/01/19 06:14:02;0.00;0.00;0.62;0.00;0.00;0.62;1.77;1.00;;;18.40;20.70;;;;;;2260819;61;20396;-55
2024/01/19 06:16:49;0.00;0.00;0.62;0.00;0.00;0.62;1.60;0.90;;;18.40;20.70;;;;;;2260641;61;20396;-55
2024/01/19 06:19:34;0.00;0.00;0.62;0.00;0.00;0.62;1.43;0.90;;;18.40;20.70;;;;;;2260770;61;20412;-52
2024/01/19 06:22:18;0.00;0.00;0.62;0.00;0.00;0.62;1.80;0.70;;;18.40;20.70;;;;;;2260550;61;20368;-59
2024/01/19 06:25:04;0.00;0.00;0.62;0.00;0.00;0.62;2.43;1.00;;;18.40;20.70;;;;;;2260600;61;20386;-55
2024/01/19 06:27:48;0.00;0.00;0.62;0.00;0.00;0.62;2.53;0.80;;;18.30;20.50;;;;;;2260805;61;20444;-56
2024/01/19 06:30:34;0.00;0.00;0.62;0.00;0.00;0.62;1.50;0.90;;;18.40;20.70;;;;;;2260819;61;20350;-56
2024/01/19 06:33:20;0.00;0.00;0.62;0.00;0.00;0.62;1.60;0.87;;;18.40;20.70;;;;;;2262903;61;20364;-57
2024/01/19 06:36:08;0.00;0.00;0.62;0.00;0.00;0.62;1.50;0.83;;;18.30;20.60;;;;;;2260617;61;20372;-51
2024/01/19 06:38:54;0.00;0.00;0.62;0.00;0.00;0.62;2.67;0.90;;;18.30;20.60;;;;;;2260795;61;20392;-54
2024/01/19 06:41:41;0.00;0.00;0.62;0.00;0.00;0.62;1.63;1.10;;;18.30;20.60;;;;;;2260535;61;20361;-54
2024/01/19 06:44:26;0.00;0.00;0.62;0.00;0.00;0.62;1.90;0.90;;;18.30;20.60;;;;;;2260865;61;20388;-55
2024/01/19 06:47:11;0.00;0.00;0.62;0.00;0.00;0.62;1.87;1.07;;;18.30;20.60;;;;;;2260591;61;20416;-56
2024/01/19 06:49:57;0.00;0.00;0.62;0.00;0.00;0.62;1.80;1.10;;;18.30;20.60;;;;;;2260951;61;20380;-56
2024/01/19 06:52:41;0.00;0.00;0.62;0.00;0.00;0.62;2.80;1.00;;;18.30;20.60;;;;;;2260226;61;20919;-62
2024/01/19 06:55:26;0.00;0.00;0.62;0.00;0.00;0.62;1.50;0.90;;;18.30;20.60;;;;;;2260576;61;20431;-53
2024/01/19 06:58:10;0.00;0.00;0.62;0.00;0.00;0.62;1.63;0.80;;;18.30;20.60;;;;;;2260841;61;20450;-54
2024/01/19 07:00:55;0.00;0.00;0.62;0.00;0.00;0.62;1.20;0.60;;;18.30;20.60;;;;;;2260767;61;20916;-54
2024/01/19 07:03:39;0.00;0.00;0.62;0.00;0.00;0.62;1.30;0.77;;;18.30;20.70;;;;;;2260345;61;20396;-57
2024/01/19 07:06:25;0.00;0.00;0.62;0.00;0.00;0.62;1.63;0.90;;;18.30;20.60;;;;;;2260932;61;20385;-53
2024/01/19 07:09:10;0.00;0.00;0.62;0.00;0.00;0.62;1.80;1.00;;;18.30;20.70;;;;;;2260598;61;20779;-56
2024/01/19 07:11:55;0.00;0.00;0.62;0.00;0.00;0.62;1.47;0.80;;;18.30;20.70;;;;;;2260516;61;20766;-58
2024/01/19 07:14:40;0.00;0.00;0.62;0.00;0.00;0.62;1.90;1.03;;;18.30;20.70;;;;;;2260427;61;20463;-53
2024/01/19 07:17:24;0.00;0.00;0.62;0.00;0.00;0.62;1.57;1.03;;;18.30;20.70;;;;;;2260721;61;20421;-54
2024/01/19 07:20:10;0.00;0.00;0.62;0.00;0.00;0.62;1.67;1.00;;;18.30;20.70;;;;;;2262840;61;20368;-52
2024/01/19 07:22:59;0.00;0.00;0.62;0.00;0.00;0.62;1.50;0.80;;;18.30;20.70;;;;;;2260210;61;20456;-53
2024/01/19 07:25:43;0.00;0.00;0.62;0.00;0.00;0.62;1.60;0.90;;;18.30;20.70;;;;;;2260630;61;20503;-58
2024/01/19 07:28:28;0.00;0.00;0.62;0.00;0.00;0.62;1.67;0.90;;;18.30;21.20;;;;;;2261005;61;20444;-56
2024/01/19 07:31:12;0.00;0.00;0.62;0.00;0.00;0.62;1.97;1.13;;;18.30;20.70;;;;;;2260360;61;20488;-55
2024/01/19 07:33:57;0.00;0.00;0.62;0.00;0.00;0.62;1.87;1.00;;;18.30;20.70;;;;;;2260616;61;20451;-54
2024/01/19 07:36:42;0.00;0.00;0.62;0.00;0.00;0.62;2.20;0.80;;;18.30;20.70;;;;;;2260709;61;20361;-53
2024/01/19 07:39:28;0.00;0.00;0.62;0.00;0.00;0.62;2.10;0.90;;;18.30;20.70;;;;;;2260888;61;20609;-54
2024/01/19 07:42:12;0.00;0.00;0.62;0.00;0.00;0.62;1.40;0.90;;;18.30;20.70;;;;;;2260309;61;21212;-54
2024/01/19 07:44:57;0.00;0.00;0.62;0.00;0.00;0.62;1.80;0.90;;;18.30;20.70;;;;;;2260529;61;20384;-51
2024/01/19 07:47:41;0.00;0.00;0.62;0.00;0.00;0.62;3.63;1.13;;;18.30;20.70;;;;;;2260754;61;20395;-56
2024/01/19 07:50:26;0.00;0.00;0.62;0.00;0.00;0.62;2.23;1.67;;;18.30;20.70;;;;;;2260968;61;20885;-58
2024/01/19 07:53:11;0.00;0.00;0.62;0.00;0.00;0.62;1.70;1.10;;;18.30;20.70;;;;;;2260025;61;20388;-53
2024/01/19 07:55:57;0.00;0.00;0.62;0.00;0.00;0.62;1.60;1.00;;;18.20;20.60;;;;;;2261047;61;20361;-55
2024/01/19 07:58:43;0.00;0.00;0.62;0.00;0.00;0.62;1.87;1.00;;;18.20;20.60;;;;;;2260632;61;20388;-53
2024/01/19 08:01:28;0.00;0.00;0.62;0.00;0.00;0.62;1.67;1.07;;;18.30;20.70;;;;;;2262915;61;20365;-55
2024/01/19 08:04:13;0.00;0.00;0.62;0.00;0.00;0.62;2.43;1.00;;;18.20;20.60;;;;;;2260678;61;20388;-55
2024/01/19 08:06:57;0.00;0.00;0.62;0.00;0.00;0.62;2.43;1.37;;;18.30;20.70;;;;;;2260329;61;20403;-57
2024/01/19 08:09:42;0.00;0.00;0.62;0.00;0.00;0.62;1.90;0.90;;;18.20;20.60;;;;;;2260637;61;20873;-54
2024/01/19 08:12:28;0.00;0.00;0.62;0.00;0.00;0.62;1.60;1.10;;;18.20;20.60;;;;;;2260296;61;21092;-57
2024/01/19 08:15:13;0.00;0.00;0.62;0.00;0.00;0.62;2.07;1.30;;;18.20;20.60;;;;;;2260341;61;20427;-54
2024/01/19 08:17:57;0.00;0.00;0.62;0.00;0.00;0.62;2.03;1.30;;;18.20;20.60;;;;;;2260851;61;20352;-56
2024/01/19 08:20:42;0.00;0.00;0.62;0.00;0.00;0.62;2.10;1.30;;;18.20;20.60;;;;;;2260622;61;20364;-54
2024/01/19 08:23:26;0.00;0.00;0.62;0.00;0.00;0.62;2.00;1.20;;;18.20;20.60;;;;;;2260136;61;20381;-58
2024/01/19 08:26:11;0.00;0.00;0.62;0.00;0.00;0.62;2.33;1.40;;;18.20;20.60;;;;;;2260568;61;20404;-54
2024/01/19 08:28:57;0.00;0.00;0.62;0.00;0.00;0.62;2.20;1.30;;;18.20;20.60;;;;;;2260397;61;20369;-53
2024/01/19 08:31:43;0.00;0.00;0.62;0.00;0.00;0.62;2.50;1.40;;;18.20;20.60;;;;;;2259682;61;20376;-53
2024/01/19 08:34:28;0.00;0.00;0.62;0.00;0.00;0.62;2.40;1.30;;;18.20;20.60;;;;;;2260540;61;20380;-55
2024/01/19 08:37:13;0.00;0.00;0.62;0.00;0.00;0.62;3.40;1.50;;;18.20;20.60;;;;;;2260211;61;20665;-53
2024/01/19 08:39:58;0.00;0.00;0.62;0.00;0.00;0.62;2.10;1.47;;;18.20;20.60;;;;;;2260485;61;20456;-55
2024/01/19 08:42:43;0.00;0.00;0.62;0.00;0.00;0.62;3.07;1.50;;;18.20;20.60;;;;;;2259695;61;20408;-56
2024/01/19 08:45:29;0.00;0.00;0.62;0.00;0.00;0.62;2.13;1.33;;;18.20;20.70;;;;;;2260281;61;20477;-59
2024/01/19 08:48:15;0.00;0.00;0.62;0.00;0.00;0.62;1.87;1.30;;;18.20;20.60;;;;;;2260446;61;20438;-56
2024/01/19 08:51:01;0.00;0.00;0.62;0.00;0.00;0.62;1.80;1.20;;;18.20;20.60;;;;;;2260507;61;20361;-57
2024/01/19 08:53:45;0.00;0.00;0.62;0.00;0.00;0.62;3.40;1.80;;;18.20;20.60;;;;;;2259453;61;20568;-56
2024/01/19 08:56:30;0.00;0.00;0.62;0.00;0.00;0.62;2.00;1.27;;;18.20;21.20;;;;;;2260548;61;20416;-55
2024/01/19 08:59:17;0.00;0.00;0.62;0.00;0.00;0.62;2.33;1.67;;;18.20;20.70;;;;;;2260115;61;20364;-58
2024/01/19 09:02:04;0.00;0.00;0.62;0.00;0.00;0.62;2.53;1.63;;;18.20;20.70;;;;;;2260078;61;20841;-55
2024/01/19 09:04:49;0.00;0.00;0.62;0.00;0.00;0.62;2.97;1.90;;;18.20;20.70;;;;;;2259795;61;20483;-56
2024/01/19 09:07:34;0.00;0.00;0.62;0.00;0.00;0.62;2.40;1.93;;;18.20;20.70;;;;;;2260146;61;20902;-51
2024/01/19 09:10:20;0.00;0.00;0.62;0.00;0.00;0.62;2.00;1.47;;;18.20;20.80;;;;;;2260549;61;20364;-56
2024/01/19 09:13:04;0.00;0.00;0.62;0.00;0.00;0.62;2.00;1.40;;;18.30;20.90;;;;;;2259983;61;20472;-57
2024/01/19 09:15:49;0.00;0.00;0.62;0.00;0.00;0.62;3.30;1.70;;;18.20;20.80;;;;;;2260179;61;20845;-57
2024/01/19 09:18:35;0.00;0.00;0.62;0.00;0.00;0.62;3.00;1.93;;;18.30;20.90;;;;;;2260213;61;20403;-55
2024/01/19 09:21:20;0.00;0.00;0.62;0.00;0.00;0.62;2.60;1.80;;;18.30;20.90;;;;;;2260063;61;20416;-55
2024/01/19 09:24:04;0.00;0.00;0.62;0.00;0.00;0.62;2.30;1.53;;;18.30;20.90;;;;;;2259847;61;20415;-56
2024/01/19 09:26:49;0.00;0.00;0.62;0.00;0.00;0.62;2.47;1.77;;;18.30;20.90;;;;;;2260100;61;20392;-56
2024/01/19 09:29:33;0.00;0.00;0.62;0.00;0.00;0.62;2.83;1.70;;;18.30;20.90;;;;;;2259883;61;20388;-51
2024/01/19 09:32:18;0.00;0.00;0.62;0.00;0.00;0.62;3.30;2.33;;;18.30;21.00;;;;;;2260148;61;20364;-53
2024/01/19 09:35:05;0.00;0.00;0.62;0.00;0.00;0.62;3.33;1.70;;;18.30;21.00;;;;;;2259991;61;20389;-55
2024/01/19 09:37:50;0.00;0.00;0.62;0.00;0.00;0.62;3.00;1.83;;;18.30;21.00;;;;;;2260281;61;20484;-54
2024/01/19 09:40:35;0.00;0.00;0.62;0.00;0.00;0.62;1.93;1.30;;;18.30;21.00;;;;;;2260369;61;20897;-55
2024/01/19 09:43:21;0.00;0.00;0.62;0.00;0.00;0.62;2.00;1.50;;;18.40;21.10;;;;;;2259705;61;20392;-55
2024/01/19 09:46:08;0.00;0.00;0.62;0.00;0.00;0.62;3.17;1.77;;;18.30;21.00;;;;;;2257037;61;20935;-58
2024/01/19 09:49:08;0.00;0.00;0.62;0.00;0.00;0.62;2.03;1.47;;;18.40;21.10;;;;;;2260905;61;20376;-53
2024/01/19 09:52:02;0.00;0.00;0.62;0.00;0.00;0.62;2.40;1.80;;;18.40;21.10;;;;;;2260163;61;20487;-56
2024/01/19 09:54:47;0.00;0.00;0.62;0.00;0.00;0.62;2.80;1.90;;;18.40;21.10;;;;;;2260877;61;20380;-54
2024/01/19 09:57:34;0.00;0.00;0.62;0.00;0.00;0.62;2.70;2.00;;;18.40;21.10;;;;;;2260960;61;20368;-54
2024/01/19 10:00:20;0.00;0.00;0.62;0.00;0.00;0.62;2.93;2.13;;;18.40;21.10;;;;;;2261075;61;20357;-58
2024/01/19 10:03:09;0.00;0.00;0.62;0.00;0.00;0.62;3.07;1.83;;;18.40;21.10;;;;;;2260565;61;20450;-54
2024/01/19 10:05:53;0.00;0.00;0.62;0.00;0.00;0.62;3.60;2.20;;;18.40;21.10;;;;;;2260823;61;20365;-56
2024/01/19 10:08:41;0.00;0.00;0.62;0.00;0.00;0.62;5.30;2.70;;;18.40;21.20;;;;;;2260555;61;20365;-54
2024/01/19 10:11:29;0.00;0.00;0.62;0.00;0.00;0.62;4.63;3.50;;;18.50;21.30;;;;;;2260900;61;20831;-57
2024/01/19 10:14:14;0.00;0.00;0.62;0.00;0.00;0.62;5.70;3.47;;;18.40;21.20;;;;;;2260831;61;20427;-57
2024/01/19 10:16:59;0.00;0.00;0.62;0.00;0.00;0.62;4.30;3.57;;;18.50;21.30;;;;;;2261075;61;20353;-54
2024/01/19 10:19:44;0.00;0.00;0.62;0.00;0.00;0.62;4.60;3.30;;;18.50;21.30;;;;;;2260947;61;20419;-57
2024/01/19 10:22:30;0.00;0.00;0.62;0.00;0.00;0.62;4.27;3.10;;;18.50;21.30;;;;;;2260221;61;20926;-56
2024/01/19 10:25:16;0.00;0.00;0.62;0.00;0.00;0.62;4.23;3.27;;;18.50;21.30;;;;;;2260850;61;20435;-53
2024/01/19 10:28:02;0.00;0.00;0.62;0.00;0.00;0.62;5.00;4.03;;;18.50;21.30;;;;;;2260624;61;20841;-55
2024/01/19 10:30:46;0.00;0.00;0.62;0.00;0.00;0.62;5.43;4.10;;;18.60;21.40;;;;;;2260975;61;20365;-51
2024/01/19 10:33:31;0.00;0.00;0.62;0.00;0.00;0.62;6.80;4.53;;;18.60;21.40;;;;;;2260662;61;20774;-55
2024/01/19 10:36:16;0.00;0.00;0.62;0.00;0.00;0.62;6.40;4.40;;;18.60;21.50;;;;;;2260678;61;20827;-54
2024/01/19 10:39:16;0.00;0.00;0.62;0.00;0.00;0.62;6.10;4.70;;;18.60;21.50;;;;;;2260767;61;20461;-55
2024/01/19 10:42:08;0.00;0.00;0.62;0.00;0.00;0.62;5.27;4.10;;;18.60;21.50;;;;;;2260306;61;20929;-51
2024/01/19 10:44:52;0.00;0.00;0.62;0.00;0.00;0.62;5.20;4.27;;;18.60;21.50;;;;;;2260333;61;21043;-52
2024/01/19 10:47:37;0.00;0.00;0.62;0.00;0.00;0.62;6.53;4.40;;;18.60;21.50;;;;;;2260883;61;20477;-55
2024/01/19 10:50:26;0.00;0.00;0.62;0.00;0.00;0.62;5.57;4.10;;;18.70;21.50;;;;;;2260687;61;20392;-56
2024/01/19 10:53:14;0.00;0.00;0.62;0.00;0.00;0.62;4.80;3.90;;;18.60;21.50;;;;;;2260499;61;20373;-63